Pelagia — PGRQ — position and weather

sailwx.info

Track history (hours):
 
Tides and Currents Weather Stations Pressure Air Temp Water Temp Dewpoint Dewpoint Depression Visibility Wind Speed Wind Dir Waves Ship Positions

Oceanographic research ship Pelagia (Netherlands)

Detailed information on ship capabilities available from University of Delaware's Ocean Information Center and ARCUS's ALIAS (Arctic Logistics Information and Support) project.

Last reported at 2019-Jun-08 05:40 UTC. Time now 2019-Jun-19 20:53 UTC.
Position N 49°44' W 004°15'.
Warning: this ship's position is 11 days out of date.

Length 66 m; beam 13 m.

Type: Dredging. MMSI: 244925000.

Date/timePositionNaut miles runAvg speedWind from/ knotsBaromVisibWave heightAir tempDewpointWater temp
2019-Jun-08 05:40N 49°44' W 004°15'3 6.6
2019-Jun-08 05:15N 49°45' W 004°11'2 6.9
2019-Jun-08 05:01N 49°45' W 004°08'4 7.2
2019-Jun-08 04:30N 49°47' W 004°03'4 7.5
2019-Jun-08 04:01N 49°48' W 003°57'4 8.0
2019-Jun-08 03:31N 49°49' W 003°51'4 7.9
2019-Jun-08 03:00N 49°50' W 003°46'4 7.9
2019-Jun-08 02:31N 49°51' W 003°40'4 8.0
2019-Jun-08 02:00N 49°53' W 003°34'4 7.5
2019-Jun-08 01:30N 49°54' W 003°28'4 7.5
2019-Jun-08 01:01N 49°55' W 003°23'3 6.6
2019-Jun-08 00:30N 49°56' W 003°18'3 5.6
2019-Jun-08 00:01N 49°57' W 003°14'2 4.9
2019-Jun-07 23:30N 49°58' W 003°10'3 4.6
2019-Jun-07 22:52N 49°58' W 003°06'1 3.8
2019-Jun-07 22:31N 49°59' W 003°04'2 3.4
2019-Jun-07 22:00N 49°59' W 003°01'2 3.7
2019-Jun-07 21:31N 49°59' W 002°58'2 3.9
2019-Jun-07 21:00N 49°60' W 002°55'3 5.7
2019-Jun-07 20:30N 50°01' W 002°51'3 6.2
2019-Jun-07 20:00N 50°02' W 002°46'4 7.4
2019-Jun-07 19:30N 50°02' W 002°41'4 8.7
2019-Jun-07 19:01N 50°04' W 002°34'5 9.8
2019-Jun-07 18:28N 50°05' W 002°26'510.5
2019-Jun-07 18:01N 50°06' W 002°19'611.6
2019-Jun-07 17:30N 50°08' W 002°10'612.2
2019-Jun-07 17:00N 50°10' W 002°01'612.5
2019-Jun-07 16:30N 50°12' W 001°52'612.6
2019-Jun-07 16:00N 50°13' W 001°42'612.3
2019-Jun-07 15:30N 50°15' W 001°33'611.7
2019-Jun-07 15:01N 50°17' W 001°24'611.0
2019-Jun-07 14:30N 50°18' W 001°16'17 9.3
2019-Jun-07 12:41N 50°22' W 000°51'2 7.5
2019-Jun-07 12:29N 50°23' W 000°48'4 6.9
2019-Jun-07 11:53N 50°24' W 000°42'6 6.8
2019-Jun-07 11:02N 50°26' W 000°33'2 7.1
2019-Jun-07 10:48N 50°26' W 000°31'2 7.3
2019-Jun-07 10:30N 50°27' W 000°28'4 7.8
2019-Jun-07 09:58N 50°28' W 000°21'4 8.5
2019-Jun-07 09:27N 50°29' W 000°15'5 9.3
2019-Jun-07 08:53N 50°30' W 000°07'1910.8
2019-Jun-07 07:05N 50°36' E 000°23'211.7
2019-Jun-07 06:54N 50°36' E 000°26'511.7
2019-Jun-07 06:29N 50°38' E 000°33'511.3
2019-Jun-07 06:00N 50°41' E 000°40'611.1
2019-Jun-07 05:30N 50°44' E 000°48'510.6
2019-Jun-07 05:00N 50°47' E 000°54'510.1
2019-Jun-07 04:31N 50°50' E 001°01'5 9.6
2019-Jun-07 04:00N 50°53' E 001°07'5 9.0
2019-Jun-07 03:30N 50°56' E 001°12'4 8.3
2019-Jun-07 03:00N 50°59' E 001°17'4 7.6
2019-Jun-07 02:30N 51°01' E 001°22'4 7.2
2019-Jun-07 02:01N 51°04' E 001°26'4 7.6
2019-Jun-07 01:30N 51°06' E 001°31'4 8.1
2019-Jun-07 01:00N 51°09' E 001°36'4 8.9
2019-Jun-07 00:30N 51°11' E 001°41'5 9.6
2019-Jun-07 00:00N 51°15' E 001°46'611.3
2019-Jun-06 23:30N 51°20' E 001°50'612.1
2019-Jun-06 23:00N 51°26' E 001°54'612.2
2019-Jun-06 22:30N 51°31' E 001°60'612.3
2019-Jun-06 22:00N 51°35' E 002°06'611.9
2019-Jun-06 21:29N 51°40' E 002°13'611.6
2019-Jun-06 21:00N 51°44' E 002°19'511.0
2019-Jun-06 20:31N 51°48' E 002°25'510.4
2019-Jun-06 20:00N 51°52' E 002°30'5 9.9
2019-Jun-06 19:30N 51°56' E 002°36'5 9.4
2019-Jun-06 19:00N 51°59' E 002°41'4 9.0
2019-Jun-06 18:31N 52°02' E 002°46'4 8.7
2019-Jun-06 18:01N 52°06' E 002°51'4 8.5
2019-Jun-06 17:30N 52°09' E 002°55'4 8.2
2019-Jun-06 17:00N 52°12' E 002°60'4 8.0
2019-Jun-06 16:30N 52°15' E 003°04'4 7.8
2019-Jun-06 16:00N 52°18' E 003°09'4 7.9
2019-Jun-06 15:28N 52°20' E 003°14'4 8.2
2019-Jun-06 15:01N 52°23' E 003°18'5 8.8
2019-Jun-06 14:29N 52°25' E 003°25'3210.1
2019-Jun-06 11:21N 52°42' E 004°09'610.5
2019-Jun-06 10:49N 52°45' E 004°17'1110.0
2019-Jun-06 09:44N 52°51' E 004°32'2 9.6
2019-Jun-06 09:30N 52°52' E 004°35'8 9.0
2019-Jun-06 08:39N 52°58' E 004°43'4 7.8
2019-Jun-06 08:09N 53°00' E 004°48'0 0.3
2019-Jun-06 06:38N 53°00' E 004°48'0 0.0
2019-Jun-06 05:55N 53°00' E 004°48'0 0.0
2019-Jun-06 04:26N 53°00' E 004°48'0 0.0
2019-Jun-06 03:55N 53°00' E 004°48'0 0.0
2019-Jun-06 03:29N 53°00' E 004°48'0 0.0
2019-Jun-06 02:56N 53°00' E 004°48'0 0.0
2019-Jun-06 02:16N 53°00' E 004°48'0 0.0
2019-Jun-06 01:58N 53°00' E 004°48'0 0.0
2019-Jun-06 01:29N 53°00' E 004°48'0 0.0
2019-Jun-05 22:23N 53°00' E 004°48'0 0.0
2019-Jun-05 21:41N 53°00' E 004°48'0 0.0
2019-Jun-05 21:23N 53°00' E 004°48'0 0.0
2019-Jun-05 20:23N 53°00' E 004°48'0 0.0
2019-Jun-05 19:29N 53°00' E 004°48'0 0.0
2019-Jun-05 18:59N 53°00' E 004°48'0 0.0
2019-Jun-05 18:29N 53°00' E 004°48'0 0.0
2019-Jun-05 17:53N 53°00' E 004°48'0 0.0
2019-Jun-05 17:29N 53°00' E 004°48'0 0.0
2019-Jun-05 16:29N 53°00' E 004°48'0 0.0
2019-Jun-05 15:59N 53°00' E 004°48'0 0.0
2019-Jun-05 15:17N 53°00' E 004°48'0 0.0
2019-Jun-05 14:53N 53°00' E 004°48'0 0.0
2019-Jun-05 14:17N 53°00' E 004°48'0 0.0
2019-Jun-05 13:59N 53°00' E 004°48'0 0.0
2019-Jun-05 12:50N 53°00' E 004°48'0 0.0
2019-Jun-05 12:27N 53°00' E 004°48'0 0.0
2019-Jun-05 11:33N 53°00' E 004°48'0 0.0
2019-Jun-05 11:15N 53°00' E 004°48'0 0.0
2019-Jun-05 10:51N 53°00' E 004°48'0 0.0
2019-Jun-05 10:30N 53°00' E 004°48'0 0.0
2019-Jun-05 07:03N 53°00' E 004°48'0 0.0
2019-Jun-05 06:36N 53°00' E 004°48'0 0.0
2019-Jun-05 06:03N 53°00' E 004°48'0 0.0
2019-Jun-05 05:48N 53°00' E 004°48'0 0.0
2019-Jun-05 05:21N 53°00' E 004°48'0 0.0
2019-Jun-05 05:00N 53°00' E 004°48'0 0.0
2019-Jun-05 04:30N 53°00' E 004°48'0 0.0
2019-Jun-05 03:51N 53°00' E 004°48'0 0.0
2019-Jun-05 03:21N 53°00' E 004°48'0 0.0
2019-Jun-05 02:51N 53°00' E 004°48'0 0.0
2019-Jun-05 02:21N 53°00' E 004°48'0 0.0
2019-Jun-05 01:51N 53°00' E 004°48'0 0.0
2019-Jun-05 01:24N 53°00' E 004°48'0 0.0
2019-Jun-05 00:57N 53°00' E 004°48'0 0.0
2019-Jun-05 00:27N 53°00' E 004°48'0 0.0
2019-Jun-04 23:57N 53°00' E 004°48'0 0.0
2019-Jun-04 23:24N 53°00' E 004°48'0 0.0
2019-Jun-04 22:57N 53°00' E 004°48'0 0.0
2019-Jun-04 22:30N 53°00' E 004°48'0 0.0
2019-Jun-04 21:42N 53°00' E 004°48'0 0.0
2019-Jun-04 21:24N 53°00' E 004°48'0 0.0
2019-Jun-04 19:57N 53°00' E 004°48'0 0.0
2019-Jun-04 19:30N 53°00' E 004°48'0 0.0
2019-Jun-04 19:00N 53°00' E 004°48'0 0.0
2019-Jun-04 18:30N 53°00' E 004°48'0 0.0
2019-Jun-04 17:57N 53°00' E 004°48'0 0.0
2019-Jun-04 17:27N 53°00' E 004°48'0 0.0
2019-Jun-04 17:00N 53°00' E 004°48'0 0.0
2019-Jun-04 16:18N 53°00' E 004°48'0 0.0
2019-Jun-04 16:00N 53°00' E 004°48'0 0.0
2019-Jun-04 15:30N 53°00' E 004°48'0 0.0
2019-Jun-04 14:51N 53°00' E 004°48'0 0.0
2019-Jun-04 14:30N 53°00' E 004°48'0 0.0
2019-Jun-04 13:48N 53°00' E 004°48'0 0.0
2019-Jun-04 13:06N 53°00' E 004°48'0 0.0
2019-Jun-04 12:33N 53°00' E 004°48'0 0.0
2019-Jun-04 12:18N 53°00' E 004°48'0 0.0
2019-Jun-04 11:54N 53°00' E 004°48'0 0.0
2019-Jun-04 11:24N 53°00' E 004°48'0 0.0
2019-Jun-04 10:54N 53°00' E 004°48'0 0.0
2019-Jun-04 10:15N 53°00' E 004°48'0 0.0
2019-Jun-04 09:54N 53°00' E 004°48'0 0.0
2019-Jun-04 09:27N 53°00' E 004°48'0 0.0
2019-Jun-04 09:00N 53°00' E 004°48'2 4.4
2019-Jun-04 08:30N 53°01' E 004°51'1 2.2
2019-Jun-04 07:59N 53°03' E 004°51'0 0.0
2019-Jun-04 07:27N 53°03' E 004°51'0 0.0
2019-Jun-04 06:59N 53°03' E 004°51'0 0.0
2019-Jun-04 06:26N 53°03' E 004°51'0 0.0
2019-Jun-04 05:59N 53°03' E 004°51'0 0.0
2019-Jun-04 05:29N 53°03' E 004°51'0 0.0
2019-Jun-04 04:59N 53°03' E 004°51'0 0.0
2019-Jun-04 04:29N 53°03' E 004°51'0 0.0
2019-Jun-04 03:59N 53°03' E 004°51'0 0.0
2019-Jun-04 03:26N 53°03' E 004°51'0 0.0
2019-Jun-04 02:56N 53°03' E 004°51'0 0.0
2019-Jun-04 02:29N 53°03' E 004°51'0 0.0
2019-Jun-04 01:59N 53°03' E 004°51'0 0.0
2019-Jun-04 01:26N 53°03' E 004°51'0 0.0
2019-Jun-04 00:59N 53°03' E 004°51'0 0.0
2019-Jun-04 00:29N 53°03' E 004°51'0 0.0
2019-Jun-03 23:59N 53°03' E 004°51'0 0.0
2019-Jun-03 23:29N 53°03' E 004°51'0 0.0
2019-Jun-03 22:56N 53°03' E 004°51'0 0.0
2019-Jun-03 22:26N 53°03' E 004°51'0 0.0
2019-Jun-03 21:56N 53°03' E 004°51'0 0.0
2019-Jun-03 21:29N 53°03' E 004°51'0 0.0
2019-Jun-03 20:59N 53°03' E 004°51'0 0.0
2019-Jun-03 20:29N 53°03' E 004°51'0 0.0
2019-Jun-03 19:59N 53°03' E 004°51'0 0.0
2019-Jun-03 19:26N 53°03' E 004°51'0 0.0
2019-Jun-03 18:59N 53°03' E 004°51'0 0.0
2019-Jun-03 18:26N 53°03' E 004°51'0 0.0
2019-Jun-03 17:59N 53°03' E 004°51'0 0.0
2019-Jun-03 17:29N 53°03' E 004°51'0 0.0
2019-Jun-03 16:59N 53°03' E 004°51'0 0.0
2019-Jun-03 16:29N 53°03' E 004°51'0 0.0
2019-Jun-03 15:59N 53°03' E 004°51'0 0.0
2019-Jun-03 15:29N 53°03' E 004°51'0 0.0
2019-Jun-03 14:59N 53°03' E 004°51'0 0.0
2019-Jun-03 14:20N 53°03' E 004°51'0 0.0
2019-Jun-03 13:59N 53°03' E 004°51'0 0.0
2019-Jun-03 13:26N 53°03' E 004°51'0 0.0
2019-Jun-03 12:56N 53°03' E 004°51'0 0.0
2019-Jun-03 12:29N 53°03' E 004°51'0 0.0
2019-Jun-03 11:59N 53°03' E 004°51'0 0.0
2019-Jun-03 11:29N 53°03' E 004°51'0 0.0
2019-Jun-03 10:59N 53°03' E 004°51'0 0.0
2019-Jun-03 10:29N 53°03' E 004°51'0 0.0
2019-Jun-03 09:59N 53°03' E 004°51'0 0.0
2019-Jun-03 09:29N 53°03' E 004°51'0 0.0
2019-Jun-03 08:59N 53°03' E 004°51'0 0.0
2019-Jun-03 08:29N 53°03' E 004°51'0 0.1
2019-Jun-03 08:01N 53°03' E 004°51'0 0.1
2019-Jun-03 07:30N 53°02' E 004°51'0 1.0
2019-Jun-03 07:00N 53°02' E 004°52'3 5.9
2019-Jun-03 06:30N 53°00' E 004°48'0 0.3
2019-Jun-03 05:59N 53°00' E 004°48'0 0.0
2019-Jun-03 05:26N 53°00' E 004°48'0 0.0
2019-Jun-03 04:59N 53°00' E 004°48'0 0.0
2019-Jun-03 04:29N 53°00' E 004°48'0 0.0
2019-Jun-03 03:59N 53°00' E 004°48'0 0.0
2019-Jun-03 03:29N 53°00' E 004°48'0 0.0
2019-Jun-03 02:59N 53°00' E 004°48'0 0.0
2019-Jun-03 02:26N 53°00' E 004°48'0 0.0
2019-Jun-03 01:59N 53°00' E 004°48'0 0.0
2019-Jun-03 01:29N 53°00' E 004°48'0 0.0
2019-Jun-03 00:56N 53°00' E 004°48'0 0.0
2019-Jun-03 00:29N 53°00' E 004°48'0 0.0
2019-Jun-02 23:59N 53°00' E 004°48'0 0.0
2019-Jun-02 23:29N 53°00' E 004°48'0 0.0
2019-Jun-02 22:59N 53°00' E 004°48'0 0.0
2019-Jun-02 22:29N 53°00' E 004°48'0 0.0
2019-Jun-02 21:56N 53°00' E 004°48'0 0.0
2019-Jun-02 21:29N 53°00' E 004°48'0 0.0
2019-Jun-02 20:59N 53°00' E 004°48'0 0.0
2019-Jun-02 20:29N 53°00' E 004°48'0 0.0
2019-Jun-02 19:59N 53°00' E 004°48'0 0.0
2019-Jun-02 19:29N 53°00' E 004°48'0 0.0
2019-Jun-02 18:59N 53°00' E 004°48'0 0.0
2019-Jun-02 18:29N 53°00' E 004°48'0 0.0
2019-Jun-02 17:59N 53°00' E 004°48'0 0.0
2019-Jun-02 17:29N 53°00' E 004°48'0 0.0
2019-Jun-02 16:59N 53°00' E 004°48'0 0.0
2019-Jun-02 16:29N 53°00' E 004°48'0 0.0
2019-Jun-02 15:59N 53°00' E 004°48'0 0.0
2019-Jun-02 15:29N 53°00' E 004°48'0 0.0
2019-Jun-02 14:59N 53°00' E 004°48'0 0.0
2019-Jun-02 14:29N 53°00' E 004°48'0 0.0
2019-Jun-02 13:59N 53°00' E 004°48'0 0.0
2019-Jun-02 13:29N 53°00' E 004°48'0 0.0
2019-Jun-02 12:59N 53°00' E 004°48'0 0.0
2019-Jun-02 12:29N 53°00' E 004°48'0 0.0
2019-Jun-02 11:59N 53°00' E 004°48'0 0.0
2019-Jun-02 11:30N 53°00' E 004°48'0 0.0
2019-Jun-02 10:57N 53°00' E 004°48'0 0.0
2019-Jun-02 10:30N 53°00' E 004°48'0 0.0
2019-Jun-02 10:00N 53°00' E 004°48'0 0.0
2019-Jun-02 09:30N 53°00' E 004°48'0 0.0
2019-Jun-02 09:00N 53°00' E 004°48'0 0.0
2019-Jun-02 08:30N 53°00' E 004°48'0 0.0
2019-Jun-02 07:57N 53°00' E 004°48'0 0.0
2019-Jun-02 07:30N 53°00' E 004°48'0 0.0
2019-Jun-02 07:00N 53°00' E 004°48'0 0.0
2019-Jun-02 06:30N 53°00' E 004°48'0 0.0
2019-Jun-02 05:54N 53°00' E 004°48'0 0.0
2019-Jun-02 05:27N 53°00' E 004°48'0 0.0
2019-Jun-02 04:57N 53°00' E 004°48'0 0.0
2019-Jun-02 04:30N 53°00' E 004°48'0 0.0
2019-Jun-02 03:57N 53°00' E 004°48'0 0.0
2019-Jun-02 03:30N 53°00' E 004°48'0 0.0
2019-Jun-02 03:00N 53°00' E 004°48'0 0.0
2019-Jun-02 02:30N 53°00' E 004°48'0 0.0
2019-Jun-02 02:00N 53°00' E 004°48'0 0.0
2019-Jun-02 01:27N 53°00' E 004°48'0 0.0
2019-Jun-02 00:57N 53°00' E 004°48'0 0.0
2019-Jun-02 00:24N 53°00' E 004°48'0 0.0
2019-Jun-01 23:57N 53°00' E 004°48'0 0.0
2019-Jun-01 23:30N 53°00' E 004°48'0 0.0
2019-Jun-01 23:00N 53°00' E 004°48'0 0.0
2019-Jun-01 22:27N 53°00' E 004°48'0 0.0
2019-Jun-01 22:00N 53°00' E 004°48'0 0.0
2019-Jun-01 21:30N 53°00' E 004°48'0 0.0
2019-Jun-01 20:57N 53°00' E 004°48'0 0.0
2019-Jun-01 20:30N 53°00' E 004°48'0 0.0
2019-Jun-01 20:00N 53°00' E 004°48'0 0.0
2019-Jun-01 19:30N 53°00' E 004°48'0 0.0
2019-Jun-01 19:00N 53°00' E 004°48'0 0.0
2019-Jun-01 18:30N 53°00' E 004°48'0 0.0
2019-Jun-01 18:00N 53°00' E 004°48'0 0.0
2019-Jun-01 17:30N 53°00' E 004°48'0 0.0
2019-Jun-01 17:00N 53°00' E 004°48'0 0.0
2019-Jun-01 16:30N 53°00' E 004°48'0 0.0
2019-Jun-01 16:00N 53°00' E 004°48'0 0.0
2019-Jun-01 15:30N 53°00' E 004°48'0 0.0
2019-Jun-01 15:00N 53°00' E 004°48'0 0.0
2019-Jun-01 14:30N 53°00' E 004°48'0 0.0
2019-Jun-01 14:00N 53°00' E 004°48'0 0.0
2019-Jun-01 13:27N 53°00' E 004°48'0 0.0
2019-Jun-01 13:00N 53°00' E 004°48'0 0.0
2019-Jun-01 12:30N 53°00' E 004°48'0 0.0
2019-Jun-01 12:00N 53°00' E 004°48'0 0.0
2019-Jun-01 11:30N 53°00' E 004°48'0 0.0
2019-Jun-01 11:00N 53°00' E 004°48'0 0.0
2019-Jun-01 10:30N 53°00' E 004°48'0 0.0
2019-Jun-01 10:00N 53°00' E 004°48'0 0.0
2019-Jun-01 09:29N 53°00' E 004°48'0 0.0
2019-Jun-01 08:59N 53°00' E 004°48'0 0.0
2019-Jun-01 08:29N 53°00' E 004°48'0 0.0
2019-Jun-01 07:59N 53°00' E 004°48'0 0.0
2019-Jun-01 07:29N 53°00' E 004°48'0 0.0
2019-Jun-01 06:59N 53°00' E 004°48'0 0.0
2019-Jun-01 06:29N 53°00' E 004°48'0 0.0
2019-Jun-01 05:59N 53°00' E 004°48'0 0.0
2019-Jun-01 05:29N 53°00' E 004°48'0 0.0
2019-Jun-01 04:59N 53°00' E 004°48'0 0.0
2019-Jun-01 04:29N 53°00' E 004°48'0 0.0
2019-Jun-01 03:59N 53°00' E 004°48'0 0.0
2019-Jun-01 03:30N 53°00' E 004°48'0 0.0
2019-Jun-01 02:59N 53°00' E 004°48'0 0.0
2019-Jun-01 02:29N 53°00' E 004°48'0 0.0
2019-Jun-01 01:59N 53°00' E 004°48'0 0.0
2019-Jun-01 01:29N 53°00' E 004°48'0 0.0
2019-Jun-01 00:59N 53°00' E 004°48'0 0.0
2019-Jun-01 00:29N 53°00' E 004°48'0 0.0
2019-May-31 23:59N 53°00' E 004°48'0 0.0
2019-May-31 23:29N 53°00' E 004°48'0 0.0
2019-May-31 22:56N 53°00' E 004°48'0 0.0
2019-May-31 22:29N 53°00' E 004°48'0 0.0
2019-May-31 21:59N 53°00' E 004°48'0 0.0
2019-May-31 21:29N 53°00' E 004°48'0 0.0
2019-May-31 20:59N 53°00' E 004°48'0 0.0
2019-May-31 20:26N 53°00' E 004°48'0 0.0
2019-May-31 19:59N 53°00' E 004°48'0 0.0
2019-May-31 19:29N 53°00' E 004°48'0 0.0
2019-May-31 18:59N 53°00' E 004°48'0 0.0
2019-May-31 18:29N 53°00' E 004°48'0 0.0
2019-May-31 17:59N 53°00' E 004°48'0 0.0
2019-May-31 17:29N 53°00' E 004°48'0 0.0
2019-May-31 16:59N 53°00' E 004°48'0 0.0
2019-May-31 16:26N 53°00' E 004°48'0 0.0
2019-May-31 15:59N 53°00' E 004°48'0 0.0
2019-May-31 15:29N 53°00' E 004°48'0 0.0
2019-May-31 14:59N 53°00' E 004°48'0 0.0
2019-May-31 14:29N 53°00' E 004°48'0 0.0
2019-May-31 13:59N 53°00' E 004°48'0 0.0
2019-May-31 13:29N 53°00' E 004°48'0 0.0
2019-May-31 12:59N 53°00' E 004°48'0 0.0
2019-May-31 12:29N 53°00' E 004°48'0 0.0
2019-May-31 11:56N 53°00' E 004°48'0 0.0
2019-May-31 11:29N 53°00' E 004°48'0 0.0
2019-May-31 10:59N 53°00' E 004°48'0 0.0
2019-May-31 10:29N 53°00' E 004°48'0 0.0
2019-May-31 09:59N 53°00' E 004°48'0 0.0
2019-May-31 09:29N 53°00' E 004°48'0 0.0
2019-May-31 08:59N 53°00' E 004°48'0 0.0
2019-May-31 08:29N 53°00' E 004°48'0 0.0
2019-May-31 07:59N 53°00' E 004°48'0 0.0
2019-May-31 07:29N 53°00' E 004°48'0 0.0
2019-May-31 06:59N 53°00' E 004°48'0 0.0
2019-May-31 06:29N 53°00' E 004°48'0 0.0
2019-May-31 05:59N 53°00' E 004°48'0 0.0
2019-May-31 05:29N 53°00' E 004°48'0 0.0
2019-May-31 04:59N 53°00' E 004°48'0 0.0
2019-May-31 04:29N 53°00' E 004°48'0 0.0
2019-May-31 03:59N 53°00' E 004°48'0 0.0
2019-May-31 03:29N 53°00' E 004°48'0 0.0
2019-May-31 02:59N 53°00' E 004°48'0 0.0
2019-May-31 02:29N 53°00' E 004°48'0 0.0
2019-May-31 01:59N 53°00' E 004°48'0 0.0
2019-May-31 01:29N 53°00' E 004°48'0 0.0
2019-May-31 00:59N 53°00' E 004°48'0 0.0
2019-May-31 00:29N 53°00' E 004°48'0 0.0
2019-May-30 23:59N 53°00' E 004°48'0 0.0
2019-May-30 23:29N 53°00' E 004°48'0 0.0
2019-May-30 22:59N 53°00' E 004°48'0 0.0
2019-May-30 22:29N 53°00' E 004°48'0 0.0
2019-May-30 21:59N 53°00' E 004°48'0 0.0
2019-May-30 21:29N 53°00' E 004°48'0 0.0
2019-May-30 20:59N 53°00' E 004°48'0 0.0
2019-May-30 20:29N 53°00' E 004°48'0 0.0
2019-May-30 19:59N 53°00' E 004°48'0 0.0
2019-May-30 19:29N 53°00' E 004°48'0 0.0
2019-May-30 18:59N 53°00' E 004°48'0 0.0
2019-May-30 18:29N 53°00' E 004°48'0 0.0
2019-May-30 17:59N 53°00' E 004°48'0 0.0
2019-May-30 17:29N 53°00' E 004°48'0 0.0
2019-May-30 16:59N 53°00' E 004°48'0 0.0
2019-May-30 16:29N 53°00' E 004°48'0 0.0
2019-May-30 15:59N 53°00' E 004°48'0 0.0
2019-May-30 15:29N 53°00' E 004°48'0 0.0
2019-May-30 14:59N 53°00' E 004°48'0 0.0
2019-May-30 14:29N 53°00' E 004°48'0 0.0
2019-May-30 13:59N 53°00' E 004°48'0 0.0
2019-May-30 13:29N 53°00' E 004°48'0 0.0
2019-May-30 12:59N 53°00' E 004°48'0 0.0
2019-May-30 12:29N 53°00' E 004°48'0 0.0
2019-May-30 11:59N 53°00' E 004°48'0 0.0
2019-May-30 11:29N 53°00' E 004°48'0 0.0
2019-May-30 10:59N 53°00' E 004°48'0 0.0
2019-May-30 10:29N 53°00' E 004°48'0 0.0
2019-May-30 09:56N 53°00' E 004°48'0 0.0
2019-May-30 09:29N 53°00' E 004°48'0 0.0
2019-May-30 08:59N 53°00' E 004°48'0 0.0
2019-May-30 08:29N 53°00' E 004°48'0 0.0
2019-May-30 07:59N 53°00' E 004°48'0 0.0
2019-May-30 07:29N 53°00' E 004°48'0 0.0
2019-May-30 06:59N 53°00' E 004°48'0 0.0
2019-May-30 06:29N 53°00' E 004°48'0 0.0
2019-May-30 05:59N 53°00' E 004°48'0 0.0
2019-May-30 05:29N 53°00' E 004°48'0 0.0
2019-May-30 04:59N 53°00' E 004°48'0 0.0
2019-May-30 04:29N 53°00' E 004°48'0 0.0
2019-May-30 03:59N 53°00' E 004°48'0 0.0
2019-May-30 03:29N 53°00' E 004°48'0 0.0
2019-May-30 02:59N 53°00' E 004°48'0 0.0
2019-May-30 02:29N 53°00' E 004°48'0 0.0
2019-May-30 01:56N 53°00' E 004°48'0 0.0
2019-May-30 01:29N 53°00' E 004°48'0 0.0
2019-May-30 00:59N 53°00' E 004°48'0 0.0
2019-May-30 00:29N 53°00' E 004°48'0 0.0
2019-May-29 23:59N 53°00' E 004°48'0 0.0
2019-May-29 23:29N 53°00' E 004°48'0 0.0
2019-May-29 22:59N 53°00' E 004°48'0 0.0
2019-May-29 22:29N 53°00' E 004°48'0 0.0
2019-May-29 21:59N 53°00' E 004°48'0 0.0
2019-May-29 21:29N 53°00' E 004°48'0 0.0
2019-May-29 20:59N 53°00' E 004°48'0 0.0
2019-May-29 20:29N 53°00' E 004°48'0 0.0
2019-May-29 19:59N 53°00' E 004°48'0 0.0
2019-May-29 19:29N 53°00' E 004°48'0 0.0
2019-May-29 18:59N 53°00' E 004°48'0 0.0
2019-May-29 18:29N 53°00' E 004°48'0 0.0
2019-May-29 17:59N 53°00' E 004°48'0 0.0
2019-May-29 17:29N 53°00' E 004°48'0 0.0
2019-May-29 16:59N 53°00' E 004°48'0 0.0
2019-May-29 16:29N 53°00' E 004°48'0 0.0
2019-May-29 15:59N 53°00' E 004°48'0 0.0
2019-May-29 15:29N 53°00' E 004°48'0 0.0
2019-May-29 14:59N 53°00' E 004°48'0 0.0
2019-May-29 14:29N 53°00' E 004°48'0 0.0
2019-May-29 13:59N 53°00' E 004°48'0 0.0
2019-May-29 13:29N 53°00' E 004°48'0 0.0
2019-May-29 12:59N 53°00' E 004°48'0 0.0
2019-May-29 12:29N 53°00' E 004°48'0 0.0
2019-May-29 11:59N 53°00' E 004°48'0 0.0
2019-May-29 11:29N 53°00' E 004°48'0 0.0
2019-May-29 10:59N 53°00' E 004°48'0 0.0
2019-May-29 10:29N 53°00' E 004°48'0 0.0
2019-May-29 09:59N 53°00' E 004°48'0 0.0
2019-May-29 09:29N 53°00' E 004°48'0 0.0
2019-May-29 08:59N 53°00' E 004°48'0 0.0
2019-May-29 08:29N 53°00' E 004°48'0 0.0
2019-May-29 07:56N 53°00' E 004°48'0 0.0
2019-May-29 07:29N 53°00' E 004°48'0 0.0
2019-May-29 06:59N 53°00' E 004°48'0 0.0
2019-May-29 06:29N 53°00' E 004°48'0 0.0
2019-May-29 05:59N 53°00' E 004°48'  
Track history (hours):
 
Tides and Currents Weather Stations Pressure Air Temp Water Temp Dewpoint Dewpoint Depression Visibility Wind Speed Wind Dir Waves Ship Positions

Oceanographic research ship Pelagia (Netherlands)

Detailed information on ship capabilities available from University of Delaware's Ocean Information Center and ARCUS's ALIAS (Arctic Logistics Information and Support) project.

Last reported at 2019-Jun-08 05:40 UTC. Time now 2019-Jun-19 20:53 UTC.
Position N 49°44' W 004°15'.
Warning: this ship's position is 11 days out of date.

Length 66 m; beam 13 m.

Type: Dredging. MMSI: 244925000.

Date/timePositionNaut miles runAvg speedWind from/ knotsBaromVisibWave heightAir tempDewpointWater temp
2019-Jun-08 05:40N 49°44' W 004°15'3 6.6
2019-Jun-08 05:15N 49°45' W 004°11'2 6.9
2019-Jun-08 05:01N 49°45' W 004°08'4 7.2
2019-Jun-08 04:30N 49°47' W 004°03'4 7.5
2019-Jun-08 04:01N 49°48' W 003°57'4 8.0
2019-Jun-08 03:31N 49°49' W 003°51'4 7.9
2019-Jun-08 03:00N 49°50' W 003°46'4 7.9
2019-Jun-08 02:31N 49°51' W 003°40'4 8.0
2019-Jun-08 02:00N 49°53' W 003°34'4 7.5
2019-Jun-08 01:30N 49°54' W 003°28'4 7.5
2019-Jun-08 01:01N 49°55' W 003°23'3 6.6
2019-Jun-08 00:30N 49°56' W 003°18'3 5.6
2019-Jun-08 00:01N 49°57' W 003°14'2 4.9
2019-Jun-07 23:30N 49°58' W 003°10'3 4.6
2019-Jun-07 22:52N 49°58' W 003°06'1 3.8
2019-Jun-07 22:31N 49°59' W 003°04'2 3.4
2019-Jun-07 22:00N 49°59' W 003°01'2 3.7
2019-Jun-07 21:31N 49°59' W 002°58'2 3.9
2019-Jun-07 21:00N 49°60' W 002°55'3 5.7
2019-Jun-07 20:30N 50°01' W 002°51'3 6.2
2019-Jun-07 20:00N 50°02' W 002°46'4 7.4
2019-Jun-07 19:30N 50°02' W 002°41'4 8.7
2019-Jun-07 19:01N 50°04' W 002°34'5 9.8
2019-Jun-07 18:28N 50°05' W 002°26'510.5
2019-Jun-07 18:01N 50°06' W 002°19'611.6
2019-Jun-07 17:30N 50°08' W 002°10'612.2
2019-Jun-07 17:00N 50°10' W 002°01'612.5
2019-Jun-07 16:30N 50°12' W 001°52'612.6
2019-Jun-07 16:00N 50°13' W 001°42'612.3
2019-Jun-07 15:30N 50°15' W 001°33'611.7
2019-Jun-07 15:01N 50°17' W 001°24'611.0
2019-Jun-07 14:30N 50°18' W 001°16'17 9.3
2019-Jun-07 12:41N 50°22' W 000°51'2 7.5
2019-Jun-07 12:29N 50°23' W 000°48'4 6.9
2019-Jun-07 11:53N 50°24' W 000°42'6 6.8
2019-Jun-07 11:02N 50°26' W 000°33'2 7.1
2019-Jun-07 10:48N 50°26' W 000°31'2 7.3
2019-Jun-07 10:30N 50°27' W 000°28'4 7.8
2019-Jun-07 09:58N 50°28' W 000°21'4 8.5
2019-Jun-07 09:27N 50°29' W 000°15'5 9.3
2019-Jun-07 08:53N 50°30' W 000°07'1910.8
2019-Jun-07 07:05N 50°36' E 000°23'211.7
2019-Jun-07 06:54N 50°36' E 000°26'511.7
2019-Jun-07 06:29N 50°38' E 000°33'511.3
2019-Jun-07 06:00N 50°41' E 000°40'611.1
2019-Jun-07 05:30N 50°44' E 000°48'510.6
2019-Jun-07 05:00N 50°47' E 000°54'510.1
2019-Jun-07 04:31N 50°50' E 001°01'5 9.6
2019-Jun-07 04:00N 50°53' E 001°07'5 9.0
2019-Jun-07 03:30N 50°56' E 001°12'4 8.3
2019-Jun-07 03:00N 50°59' E 001°17'4 7.6
2019-Jun-07 02:30N 51°01' E 001°22'4 7.2
2019-Jun-07 02:01N 51°04' E 001°26'4 7.6
2019-Jun-07 01:30N 51°06' E 001°31'4 8.1
2019-Jun-07 01:00N 51°09' E 001°36'4 8.9
2019-Jun-07 00:30N 51°11' E 001°41'5 9.6
2019-Jun-07 00:00N 51°15' E 001°46'611.3
2019-Jun-06 23:30N 51°20' E 001°50'612.1
2019-Jun-06 23:00N 51°26' E 001°54'612.2
2019-Jun-06 22:30N 51°31' E 001°60'612.3
2019-Jun-06 22:00N 51°35' E 002°06'611.9
2019-Jun-06 21:29N 51°40' E 002°13'611.6
2019-Jun-06 21:00N 51°44' E 002°19'511.0
2019-Jun-06 20:31N 51°48' E 002°25'510.4
2019-Jun-06 20:00N 51°52' E 002°30'5 9.9
2019-Jun-06 19:30N 51°56' E 002°36'5 9.4
2019-Jun-06 19:00N 51°59' E 002°41'4 9.0
2019-Jun-06 18:31N 52°02' E 002°46'4 8.7
2019-Jun-06 18:01N 52°06' E 002°51'4 8.5
2019-Jun-06 17:30N 52°09' E 002°55'4 8.2
2019-Jun-06 17:00N 52°12' E 002°60'4 8.0
2019-Jun-06 16:30N 52°15' E 003°04'4 7.8
2019-Jun-06 16:00N 52°18' E 003°09'4 7.9
2019-Jun-06 15:28N 52°20' E 003°14'4 8.2
2019-Jun-06 15:01N 52°23' E 003°18'5 8.8
2019-Jun-06 14:29N 52°25' E 003°25'3210.1
2019-Jun-06 11:21N 52°42' E 004°09'610.5
2019-Jun-06 10:49N 52°45' E 004°17'1110.0
2019-Jun-06 09:44N 52°51' E 004°32'2 9.6
2019-Jun-06 09:30N 52°52' E 004°35'8 9.0
2019-Jun-06 08:39N 52°58' E 004°43'4 7.8
2019-Jun-06 08:09N 53°00' E 004°48'0 0.3
2019-Jun-06 06:38N 53°00' E 004°48'0 0.0
2019-Jun-06 05:55N 53°00' E 004°48'0 0.0
2019-Jun-06 04:26N 53°00' E 004°48'0 0.0
2019-Jun-06 03:55N 53°00' E 004°48'0 0.0
2019-Jun-06 03:29N 53°00' E 004°48'0 0.0
2019-Jun-06 02:56N 53°00' E 004°48'0 0.0
2019-Jun-06 02:16N 53°00' E 004°48'0 0.0
2019-Jun-06 01:58N 53°00' E 004°48'0 0.0
2019-Jun-06 01:29N 53°00' E 004°48'0 0.0
2019-Jun-05 22:23N 53°00' E 004°48'0 0.0
2019-Jun-05 21:41N 53°00' E 004°48'0 0.0
2019-Jun-05 21:23N 53°00' E 004°48'0 0.0
2019-Jun-05 20:23N 53°00' E 004°48'0 0.0
2019-Jun-05 19:29N 53°00' E 004°48'0 0.0
2019-Jun-05 18:59N 53°00' E 004°48'0 0.0
2019-Jun-05 18:29N 53°00' E 004°48'0 0.0
2019-Jun-05 17:53N 53°00' E 004°48'0 0.0
2019-Jun-05 17:29N 53°00' E 004°48'0 0.0
2019-Jun-05 16:29N 53°00' E 004°48'0 0.0
2019-Jun-05 15:59N 53°00' E 004°48'0 0.0
2019-Jun-05 15:17N 53°00' E 004°48'0 0.0
2019-Jun-05 14:53N 53°00' E 004°48'0 0.0
2019-Jun-05 14:17N 53°00' E 004°48'0 0.0
2019-Jun-05 13:59N 53°00' E 004°48'0 0.0
2019-Jun-05 12:50N 53°00' E 004°48'0 0.0
2019-Jun-05 12:27N 53°00' E 004°48'0 0.0
2019-Jun-05 11:33N 53°00' E 004°48'0 0.0
2019-Jun-05 11:15N 53°00' E 004°48'0 0.0
2019-Jun-05 10:51N 53°00' E 004°48'0 0.0
2019-Jun-05 10:30N 53°00' E 004°48'0 0.0
2019-Jun-05 07:03N 53°00' E 004°48'0 0.0
2019-Jun-05 06:36N 53°00' E 004°48'0 0.0
2019-Jun-05 06:03N 53°00' E 004°48'0 0.0
2019-Jun-05 05:48N 53°00' E 004°48'0 0.0
2019-Jun-05 05:21N 53°00' E 004°48'0 0.0
2019-Jun-05 05:00N 53°00' E 004°48'0 0.0
2019-Jun-05 04:30N 53°00' E 004°48'0 0.0
2019-Jun-05 03:51N 53°00' E 004°48'0 0.0
2019-Jun-05 03:21N 53°00' E 004°48'0 0.0
2019-Jun-05 02:51N 53°00' E 004°48'0 0.0
2019-Jun-05 02:21N 53°00' E 004°48'0 0.0
2019-Jun-05 01:51N 53°00' E 004°48'0 0.0
2019-Jun-05 01:24N 53°00' E 004°48'0 0.0
2019-Jun-05 00:57N 53°00' E 004°48'0 0.0
2019-Jun-05 00:27N 53°00' E 004°48'0 0.0
2019-Jun-04 23:57N 53°00' E 004°48'0 0.0
2019-Jun-04 23:24N 53°00' E 004°48'0 0.0
2019-Jun-04 22:57N 53°00' E 004°48'0 0.0
2019-Jun-04 22:30N 53°00' E 004°48'0 0.0
2019-Jun-04 21:42N 53°00' E 004°48'0 0.0
2019-Jun-04 21:24N 53°00' E 004°48'0 0.0
2019-Jun-04 19:57N 53°00' E 004°48'0 0.0
2019-Jun-04 19:30N 53°00' E 004°48'0 0.0
2019-Jun-04 19:00N 53°00' E 004°48'0 0.0
2019-Jun-04 18:30N 53°00' E 004°48'0 0.0
2019-Jun-04 17:57N 53°00' E 004°48'0 0.0
2019-Jun-04 17:27N 53°00' E 004°48'0 0.0
2019-Jun-04 17:00N 53°00' E 004°48'0 0.0
2019-Jun-04 16:18N 53°00' E 004°48'0 0.0
2019-Jun-04 16:00N 53°00' E 004°48'0 0.0
2019-Jun-04 15:30N 53°00' E 004°48'0 0.0
2019-Jun-04 14:51N 53°00' E 004°48'0 0.0
2019-Jun-04 14:30N 53°00' E 004°48'0 0.0
2019-Jun-04 13:48N 53°00' E 004°48'0 0.0
2019-Jun-04 13:06N 53°00' E 004°48'0 0.0
2019-Jun-04 12:33N 53°00' E 004°48'0 0.0
2019-Jun-04 12:18N 53°00' E 004°48'0 0.0
2019-Jun-04 11:54N 53°00' E 004°48'0 0.0
2019-Jun-04 11:24N 53°00' E 004°48'0 0.0
2019-Jun-04 10:54N 53°00' E 004°48'0 0.0
2019-Jun-04 10:15N 53°00' E 004°48'0 0.0
2019-Jun-04 09:54N 53°00' E 004°48'0 0.0
2019-Jun-04 09:27N 53°00' E 004°48'0 0.0
2019-Jun-04 09:00N 53°00' E 004°48'2 4.4
2019-Jun-04 08:30N 53°01' E 004°51'1 2.2
2019-Jun-04 07:59N 53°03' E 004°51'0 0.0
2019-Jun-04 07:27N 53°03' E 004°51'0 0.0
2019-Jun-04 06:59N 53°03' E 004°51'0 0.0
2019-Jun-04 06:26N 53°03' E 004°51'0 0.0
2019-Jun-04 05:59N 53°03' E 004°51'0 0.0
2019-Jun-04 05:29N 53°03' E 004°51'0 0.0
2019-Jun-04 04:59N 53°03' E 004°51'0 0.0
2019-Jun-04 04:29N 53°03' E 004°51'0 0.0
2019-Jun-04 03:59N 53°03' E 004°51'0 0.0
2019-Jun-04 03:26N 53°03' E 004°51'0 0.0
2019-Jun-04 02:56N 53°03' E 004°51'0 0.0
2019-Jun-04 02:29N 53°03' E 004°51'0 0.0
2019-Jun-04 01:59N 53°03' E 004°51'0 0.0
2019-Jun-04 01:26N 53°03' E 004°51'0 0.0
2019-Jun-04 00:59N 53°03' E 004°51'0 0.0
2019-Jun-04 00:29N 53°03' E 004°51'0 0.0
2019-Jun-03 23:59N 53°03' E 004°51'0 0.0
2019-Jun-03 23:29N 53°03' E 004°51'0 0.0
2019-Jun-03 22:56N 53°03' E 004°51'0 0.0
2019-Jun-03 22:26N 53°03' E 004°51'0 0.0
2019-Jun-03 21:56N 53°03' E 004°51'0 0.0
2019-Jun-03 21:29N 53°03' E 004°51'0 0.0
2019-Jun-03 20:59N 53°03' E 004°51'0 0.0
2019-Jun-03 20:29N 53°03' E 004°51'0 0.0
2019-Jun-03 19:59N 53°03' E 004°51'0 0.0
2019-Jun-03 19:26N 53°03' E 004°51'0 0.0
2019-Jun-03 18:59N 53°03' E 004°51'0 0.0
2019-Jun-03 18:26N 53°03' E 004°51'0 0.0
2019-Jun-03 17:59N 53°03' E 004°51'0 0.0
2019-Jun-03 17:29N 53°03' E 004°51'0 0.0
2019-Jun-03 16:59N 53°03' E 004°51'0 0.0
2019-Jun-03 16:29N 53°03' E 004°51'0 0.0
2019-Jun-03 15:59N 53°03' E 004°51'0 0.0
2019-Jun-03 15:29N 53°03' E 004°51'0 0.0
2019-Jun-03 14:59N 53°03' E 004°51'0 0.0
2019-Jun-03 14:20N 53°03' E 004°51'0 0.0
2019-Jun-03 13:59N 53°03' E 004°51'0 0.0
2019-Jun-03 13:26N 53°03' E 004°51'0 0.0
2019-Jun-03 12:56N 53°03' E 004°51'0 0.0
2019-Jun-03 12:29N 53°03' E 004°51'0 0.0
2019-Jun-03 11:59N 53°03' E 004°51'0 0.0
2019-Jun-03 11:29N 53°03' E 004°51'0 0.0
2019-Jun-03 10:59N 53°03' E 004°51'0 0.0
2019-Jun-03 10:29N 53°03' E 004°51'0 0.0
2019-Jun-03 09:59N 53°03' E 004°51'0 0.0
2019-Jun-03 09:29N 53°03' E 004°51'0 0.0
2019-Jun-03 08:59N 53°03' E 004°51'0 0.0
2019-Jun-03 08:29N 53°03' E 004°51'0 0.1
2019-Jun-03 08:01N 53°03' E 004°51'0 0.1
2019-Jun-03 07:30N 53°02' E 004°51'0 1.0
2019-Jun-03 07:00N 53°02' E 004°52'3 5.9
2019-Jun-03 06:30N 53°00' E 004°48'0 0.3
2019-Jun-03 05:59N 53°00' E 004°48'0 0.0
2019-Jun-03 05:26N 53°00' E 004°48'0 0.0
2019-Jun-03 04:59N 53°00' E 004°48'0 0.0
2019-Jun-03 04:29N 53°00' E 004°48'0 0.0
2019-Jun-03 03:59N 53°00' E 004°48'0 0.0
2019-Jun-03 03:29N 53°00' E 004°48'0 0.0
2019-Jun-03 02:59N 53°00' E 004°48'0 0.0
2019-Jun-03 02:26N 53°00' E 004°48'0 0.0
2019-Jun-03 01:59N 53°00' E 004°48'0 0.0
2019-Jun-03 01:29N 53°00' E 004°48'0 0.0
2019-Jun-03 00:56N 53°00' E 004°48'0 0.0
2019-Jun-03 00:29N 53°00' E 004°48'0 0.0
2019-Jun-02 23:59N 53°00' E 004°48'0 0.0
2019-Jun-02 23:29N 53°00' E 004°48'0 0.0
2019-Jun-02 22:59N 53°00' E 004°48'0 0.0
2019-Jun-02 22:29N 53°00' E 004°48'0 0.0
2019-Jun-02 21:56N 53°00' E 004°48'0 0.0
2019-Jun-02 21:29N 53°00' E 004°48'0 0.0
2019-Jun-02 20:59N 53°00' E 004°48'0 0.0
2019-Jun-02 20:29N 53°00' E 004°48'0 0.0
2019-Jun-02 19:59N 53°00' E 004°48'0 0.0
2019-Jun-02 19:29N 53°00' E 004°48'0 0.0
2019-Jun-02 18:59N 53°00' E 004°48'0 0.0
2019-Jun-02 18:29N 53°00' E 004°48'0 0.0
2019-Jun-02 17:59N 53°00' E 004°48'0 0.0
2019-Jun-02 17:29N 53°00' E 004°48'0 0.0
2019-Jun-02 16:59N 53°00' E 004°48'0 0.0
2019-Jun-02 16:29N 53°00' E 004°48'0 0.0
2019-Jun-02 15:59N 53°00' E 004°48'0 0.0
2019-Jun-02 15:29N 53°00' E 004°48'0 0.0
2019-Jun-02 14:59N 53°00' E 004°48'0 0.0
2019-Jun-02 14:29N 53°00' E 004°48'0 0.0
2019-Jun-02 13:59N 53°00' E 004°48'0 0.0
2019-Jun-02 13:29N 53°00' E 004°48'0 0.0
2019-Jun-02 12:59N 53°00' E 004°48'0 0.0
2019-Jun-02 12:29N 53°00' E 004°48'0 0.0
2019-Jun-02 11:59N 53°00' E 004°48'0 0.0
2019-Jun-02 11:30N 53°00' E 004°48'0 0.0
2019-Jun-02 10:57N 53°00' E 004°48'0 0.0
2019-Jun-02 10:30N 53°00' E 004°48'0 0.0
2019-Jun-02 10:00N 53°00' E 004°48'0 0.0
2019-Jun-02 09:30N 53°00' E 004°48'0 0.0
2019-Jun-02 09:00N 53°00' E 004°48'0 0.0
2019-Jun-02 08:30N 53°00' E 004°48'0 0.0
2019-Jun-02 07:57N 53°00' E 004°48'0 0.0
2019-Jun-02 07:30N 53°00' E 004°48'0 0.0
2019-Jun-02 07:00N 53°00' E 004°48'0 0.0
2019-Jun-02 06:30N 53°00' E 004°48'0 0.0
2019-Jun-02 05:54N 53°00' E 004°48'0 0.0
2019-Jun-02 05:27N 53°00' E 004°48'0 0.0
2019-Jun-02 04:57N 53°00' E 004°48'0 0.0
2019-Jun-02 04:30N 53°00' E 004°48'0 0.0
2019-Jun-02 03:57N 53°00' E 004°48'0 0.0
2019-Jun-02 03:30N 53°00' E 004°48'0 0.0
2019-Jun-02 03:00N 53°00' E 004°48'0 0.0
2019-Jun-02 02:30N 53°00' E 004°48'0 0.0
2019-Jun-02 02:00N 53°00' E 004°48'0 0.0
2019-Jun-02 01:27N 53°00' E 004°48'0 0.0
2019-Jun-02 00:57N 53°00' E 004°48'0 0.0
2019-Jun-02 00:24N 53°00' E 004°48'0 0.0
2019-Jun-01 23:57N 53°00' E 004°48'0 0.0
2019-Jun-01 23:30N 53°00' E 004°48'0 0.0
2019-Jun-01 23:00N 53°00' E 004°48'0 0.0
2019-Jun-01 22:27N 53°00' E 004°48'0 0.0
2019-Jun-01 22:00N 53°00' E 004°48'0 0.0
2019-Jun-01 21:30N 53°00' E 004°48'0 0.0
2019-Jun-01 20:57N 53°00' E 004°48'0 0.0
2019-Jun-01 20:30N 53°00' E 004°48'0 0.0
2019-Jun-01 20:00N 53°00' E 004°48'0 0.0
2019-Jun-01 19:30N 53°00' E 004°48'0 0.0
2019-Jun-01 19:00N 53°00' E 004°48'0 0.0
2019-Jun-01 18:30N 53°00' E 004°48'0 0.0
2019-Jun-01 18:00N 53°00' E 004°48'0 0.0
2019-Jun-01 17:30N 53°00' E 004°48'0 0.0
2019-Jun-01 17:00N 53°00' E 004°48'0 0.0
2019-Jun-01 16:30N 53°00' E 004°48'0 0.0
2019-Jun-01 16:00N 53°00' E 004°48'0 0.0
2019-Jun-01 15:30N 53°00' E 004°48'0 0.0
2019-Jun-01 15:00N 53°00' E 004°48'0 0.0
2019-Jun-01 14:30N 53°00' E 004°48'0 0.0
2019-Jun-01 14:00N 53°00' E 004°48'0 0.0
2019-Jun-01 13:27N 53°00' E 004°48'0 0.0
2019-Jun-01 13:00N 53°00' E 004°48'0 0.0
2019-Jun-01 12:30N 53°00' E 004°48'0 0.0
2019-Jun-01 12:00N 53°00' E 004°48'0 0.0
2019-Jun-01 11:30N 53°00' E 004°48'0 0.0
2019-Jun-01 11:00N 53°00' E 004°48'0 0.0
2019-Jun-01 10:30N 53°00' E 004°48'0 0.0
2019-Jun-01 10:00N 53°00' E 004°48'0 0.0
2019-Jun-01 09:29N 53°00' E 004°48'0 0.0
2019-Jun-01 08:59N 53°00' E 004°48'0 0.0
2019-Jun-01 08:29N 53°00' E 004°48'0 0.0
2019-Jun-01 07:59N 53°00' E 004°48'0 0.0
2019-Jun-01 07:29N 53°00' E 004°48'0 0.0
2019-Jun-01 06:59N 53°00' E 004°48'0 0.0
2019-Jun-01 06:29N 53°00' E 004°48'0 0.0
2019-Jun-01 05:59N 53°00' E 004°48'0 0.0
2019-Jun-01 05:29N 53°00' E 004°48'0 0.0
2019-Jun-01 04:59N 53°00' E 004°48'0 0.0
2019-Jun-01 04:29N 53°00' E 004°48'0 0.0
2019-Jun-01 03:59N 53°00' E 004°48'0 0.0
2019-Jun-01 03:30N 53°00' E 004°48'0 0.0
2019-Jun-01 02:59N 53°00' E 004°48'0 0.0
2019-Jun-01 02:29N 53°00' E 004°48'0 0.0
2019-Jun-01 01:59N 53°00' E 004°48'0 0.0
2019-Jun-01 01:29N 53°00' E 004°48'0 0.0
2019-Jun-01 00:59N 53°00' E 004°48'0 0.0
2019-Jun-01 00:29N 53°00' E 004°48'0 0.0
2019-May-31 23:59N 53°00' E 004°48'0 0.0
2019-May-31 23:29N 53°00' E 004°48'0 0.0
2019-May-31 22:56N 53°00' E 004°48'0 0.0
2019-May-31 22:29N 53°00' E 004°48'0 0.0
2019-May-31 21:59N 53°00' E 004°48'0 0.0
2019-May-31 21:29N 53°00' E 004°48'0 0.0
2019-May-31 20:59N 53°00' E 004°48'0 0.0
2019-May-31 20:26N 53°00' E 004°48'0 0.0
2019-May-31 19:59N 53°00' E 004°48'0 0.0
2019-May-31 19:29N 53°00' E 004°48'0 0.0
2019-May-31 18:59N 53°00' E 004°48'0 0.0
2019-May-31 18:29N 53°00' E 004°48'0 0.0
2019-May-31 17:59N 53°00' E 004°48'0 0.0
2019-May-31 17:29N 53°00' E 004°48'0 0.0
2019-May-31 16:59N 53°00' E 004°48'0 0.0
2019-May-31 16:26N 53°00' E 004°48'0 0.0
2019-May-31 15:59N 53°00' E 004°48'0 0.0
2019-May-31 15:29N 53°00' E 004°48'0 0.0
2019-May-31 14:59N 53°00' E 004°48'0 0.0
2019-May-31 14:29N 53°00' E 004°48'0 0.0
2019-May-31 13:59N 53°00' E 004°48'0 0.0
2019-May-31 13:29N 53°00' E 004°48'0 0.0
2019-May-31 12:59N 53°00' E 004°48'0 0.0
2019-May-31 12:29N 53°00' E 004°48'0 0.0
2019-May-31 11:56N 53°00' E 004°48'0 0.0
2019-May-31 11:29N 53°00' E 004°48'0 0.0
2019-May-31 10:59N 53°00' E 004°48'0 0.0
2019-May-31 10:29N 53°00' E 004°48'0 0.0
2019-May-31 09:59N 53°00' E 004°48'0 0.0
2019-May-31 09:29N 53°00' E 004°48'0 0.0
2019-May-31 08:59N 53°00' E 004°48'0 0.0
2019-May-31 08:29N 53°00' E 004°48'0 0.0
2019-May-31 07:59N 53°00' E 004°48'0 0.0
2019-May-31 07:29N 53°00' E 004°48'0 0.0
2019-May-31 06:59N 53°00' E 004°48'0 0.0
2019-May-31 06:29N 53°00' E 004°48'0 0.0
2019-May-31 05:59N 53°00' E 004°48'0 0.0
2019-May-31 05:29N 53°00' E 004°48'0 0.0
2019-May-31 04:59N 53°00' E 004°48'0 0.0
2019-May-31 04:29N 53°00' E 004°48'0 0.0
2019-May-31 03:59N 53°00' E 004°48'0 0.0
2019-May-31 03:29N 53°00' E 004°48'0 0.0
2019-May-31 02:59N 53°00' E 004°48'0 0.0
2019-May-31 02:29N 53°00' E 004°48'0 0.0
2019-May-31 01:59N 53°00' E 004°48'0 0.0
2019-May-31 01:29N 53°00' E 004°48'0 0.0
2019-May-31 00:59N 53°00' E 004°48'0 0.0
2019-May-31 00:29N 53°00' E 004°48'0 0.0
2019-May-30 23:59N 53°00' E 004°48'0 0.0
2019-May-30 23:29N 53°00' E 004°48'0 0.0
2019-May-30 22:59N 53°00' E 004°48'0 0.0
2019-May-30 22:29N 53°00' E 004°48'0 0.0
2019-May-30 21:59N 53°00' E 004°48'0 0.0
2019-May-30 21:29N 53°00' E 004°48'0 0.0
2019-May-30 20:59N 53°00' E 004°48'0 0.0
2019-May-30 20:29N 53°00' E 004°48'0 0.0
2019-May-30 19:59N 53°00' E 004°48'0 0.0
2019-May-30 19:29N 53°00' E 004°48'0 0.0
2019-May-30 18:59N 53°00' E 004°48'0 0.0
2019-May-30 18:29N 53°00' E 004°48'0 0.0
2019-May-30 17:59N 53°00' E 004°48'0 0.0
2019-May-30 17:29N 53°00' E 004°48'0 0.0
2019-May-30 16:59N 53°00' E 004°48'0 0.0
2019-May-30 16:29N 53°00' E 004°48'0 0.0
2019-May-30 15:59N 53°00' E 004°48'0 0.0
2019-May-30 15:29N 53°00' E 004°48'0 0.0
2019-May-30 14:59N 53°00' E 004°48'0 0.0
2019-May-30 14:29N 53°00' E 004°48'0 0.0
2019-May-30 13:59N 53°00' E 004°48'0 0.0
2019-May-30 13:29N 53°00' E 004°48'0 0.0
2019-May-30 12:59N 53°00' E 004°48'0 0.0
2019-May-30 12:29N 53°00' E 004°48'0 0.0
2019-May-30 11:59N 53°00' E 004°48'0 0.0
2019-May-30 11:29N 53°00' E 004°48'0 0.0
2019-May-30 10:59N 53°00' E 004°48'0 0.0
2019-May-30 10:29N 53°00' E 004°48'0 0.0
2019-May-30 09:56N 53°00' E 004°48'0 0.0
2019-May-30 09:29N 53°00' E 004°48'0 0.0
2019-May-30 08:59N 53°00' E 004°48'0 0.0
2019-May-30 08:29N 53°00' E 004°48'0 0.0
2019-May-30 07:59N 53°00' E 004°48'0 0.0
2019-May-30 07:29N 53°00' E 004°48'0 0.0
2019-May-30 06:59N 53°00' E 004°48'0 0.0
2019-May-30 06:29N 53°00' E 004°48'0 0.0
2019-May-30 05:59N 53°00' E 004°48'0 0.0
2019-May-30 05:29N 53°00' E 004°48'0 0.0
2019-May-30 04:59N 53°00' E 004°48'0 0.0
2019-May-30 04:29N 53°00' E 004°48'0 0.0
2019-May-30 03:59N 53°00' E 004°48'0 0.0
2019-May-30 03:29N 53°00' E 004°48'0 0.0
2019-May-30 02:59N 53°00' E 004°48'0 0.0
2019-May-30 02:29N 53°00' E 004°48'0 0.0
2019-May-30 01:56N 53°00' E 004°48'0 0.0
2019-May-30 01:29N 53°00' E 004°48'0 0.0
2019-May-30 00:59N 53°00' E 004°48'0 0.0
2019-May-30 00:29N 53°00' E 004°48'0 0.0
2019-May-29 23:59N 53°00' E 004°48'0 0.0
2019-May-29 23:29N 53°00' E 004°48'0 0.0
2019-May-29 22:59N 53°00' E 004°48'0 0.0
2019-May-29 22:29N 53°00' E 004°48'0 0.0
2019-May-29 21:59N 53°00' E 004°48'0 0.0
2019-May-29 21:29N 53°00' E 004°48'0 0.0
2019-May-29 20:59N 53°00' E 004°48'0 0.0
2019-May-29 20:29N 53°00' E 004°48'0 0.0
2019-May-29 19:59N 53°00' E 004°48'0 0.0
2019-May-29 19:29N 53°00' E 004°48'0 0.0
2019-May-29 18:59N 53°00' E 004°48'0 0.0
2019-May-29 18:29N 53°00' E 004°48'0 0.0
2019-May-29 17:59N 53°00' E 004°48'0 0.0
2019-May-29 17:29N 53°00' E 004°48'0 0.0
2019-May-29 16:59N 53°00' E 004°48'0 0.0
2019-May-29 16:29N 53°00' E 004°48'0 0.0
2019-May-29 15:59N 53°00' E 004°48'0 0.0
2019-May-29 15:29N 53°00' E 004°48'0 0.0
2019-May-29 14:59N 53°00' E 004°48'0 0.0
2019-May-29 14:29N 53°00' E 004°48'0 0.0
2019-May-29 13:59N 53°00' E 004°48'0 0.0
2019-May-29 13:29N 53°00' E 004°48'0 0.0
2019-May-29 12:59N 53°00' E 004°48'0 0.0
2019-May-29 12:29N 53°00' E 004°48'0 0.0
2019-May-29 11:59N 53°00' E 004°48'0 0.0
2019-May-29 11:29N 53°00' E 004°48'0 0.0
2019-May-29 10:59N 53°00' E 004°48'0 0.0
2019-May-29 10:29N 53°00' E 004°48'0 0.0
2019-May-29 09:59N 53°00' E 004°48'0 0.0
2019-May-29 09:29N 53°00' E 004°48'0 0.0
2019-May-29 08:59N 53°00' E 004°48'0 0.0
2019-May-29 08:29N 53°00' E 004°48'0 0.0
2019-May-29 07:56N 53°00' E 004°48'0 0.0
2019-May-29 07:29N 53°00' E 004°48'0 0.0
2019-May-29 06:59N 53°00' E 004°48'0 0.0
2019-May-29 06:29N 53°00' E 004°48'0 0.0
2019-May-29 05:59N 53°00' E 004°48'  

Dump ship's entire track history